ěÝzenÝ letovÚho provozu ╚eskÚ republiky
Letiste: LKNA Aktualizace: 27.02.2020 01:30:26  UTC
 METAR LKNA 27.02. 01:30 ...
METAR LKNA 270130Z 27008KT CAVOK M00/M03 Q1003 RMK BLU=
 TAF LKNA 26.02. 23:00 ...
TAF LKNA 262300Z 2700/2800 27012KT 9999 BKN030      TEMPO 2700/2718 28016G26KT 4000 SHSN BKN015      BECMG 2722/2800 31016KT      TEMPO 2722/2800 31018G30KT 3000 SN BKN006=